Flight Track Log - Related Links

Times and Time Zones

All times are in EST time to prevent confusion due to time zone crossing. See the QXE69 flight status page for this flight to view local times or setup timezone preferences in your user account.


Time Position Orientation Groundspeed Altitude Reporting Facility
EST Latitude Longitude Course Direction KTS MPH feet Rate Location/Type
Mon 08:59:51 PM 47.4000 -120.2975 116° Southeast  Level FlightAware Approximate
Mon 09:02:02 PM 47.3850 -120.2519 107° East 136 157 3,900  Level Seattle Center
Mon 09:03:03 PM 47.3689 -120.1736 72° East 220 253 5,900 2,115 Climbing Seattle Center
Mon 09:04:04 PM 47.3872 -120.0900 314° West 239 275 8,200 2,508 Climbing Seattle Center
Mon 09:05:05 PM 47.4186 -120.1386 249° West 192 221 11,000 2,213 Climbing Seattle Center
Mon 09:06:06 PM 47.3964 -120.2242 272° West 233 268 12,700 1,426 Climbing Seattle Center
Mon 09:07:07 PM 47.3986 -120.3194 298° West 236 272 13,900 590 Climbing Seattle Center
Mon 09:08:08 PM 47.4333 -120.4172 298° West 275 316 13,900  Level Seattle Center
Mon 09:09:09 PM 47.4714 -120.5233 297° West 292 336 13,900  Level Seattle Center
Mon 09:10:10 PM 47.5161 -120.6517 299° West 292 336 13,900  Level Seattle Center
Mon 09:11:11 PM 47.5553 -120.7575 298° West 293 337 13,900 98 Level Seattle Center
Mon 09:12:12 PM 47.5936 -120.8653 300° West 288 331 14,100 49 Climbing Seattle Center
Mon 09:13:13 PM 47.6333 -120.9692 297° West 293 337 14,000 -49 Descending Seattle Center
Mon 09:14:14 PM 47.6692 -121.0739 298° West 291 335 14,000  Level Seattle Center
Mon 09:15:15 PM 47.7075 -121.1800 295° West 292 336 14,000  Level Seattle Center
Mon 09:15:27 PM 47.7158 -121.2064 296° West 299 344 14,000  Level Seattle Center
Mon 09:16:03 PM 47.7386 -121.2761 300° West 291 335 14,000  Level Seattle Center
Mon 09:16:16 PM 47.7425 -121.2861 298° West 291 335 14,000  Level Seattle Center
Mon 09:17:10 PM 47.7800 -121.3914 161° South 290 334 14,000  Level Seattle Center
Mon 09:17:17 PM 47.7778 -121.3903 298° West 288 331 14,000  Level Seattle Center
Mon 09:18:11 PM 47.8172 -121.4994 135° Southeast 291 335 14,000  Level Seattle Center
Mon 09:18:18 PM 47.8144 -121.4953 270° West 289 333 14,000 -787 Level Seattle Center
Mon 09:19:12 PM 47.8144 -121.6267 86° East 309 356 13,200 -689 Descending Seattle Center
Mon 09:19:19 PM 47.8150 -121.6150 257° West 310 357 13,300 -1,574 Climbing Seattle Center
Mon 09:20:13 PM 47.7961 -121.7367 264° West 267 307 11,600 -1,869 Descending Seattle Center
Mon 09:20:20 PM 47.7953 -121.7478 261° West 275 316 11,400 -1,574 Descending Seattle Center
Mon 09:21:14 PM 47.7856 -121.8350 262° West 232 267 10,000 -1,475 Descending Seattle Center
Mon 09:21:21 PM 47.7850 -121.8411 263° West 235 270 9,900 -1,574 Descending Seattle Center
Mon 09:22:15 PM 47.7778 -121.9256 254° West 220 253 8,400 -1,574 Descending Seattle Center
Mon 09:22:22 PM 47.7769 -121.9300 267° West 217 250 8,300 -1,444 Descending Seattle Center
Mon 09:23:09 PM 47.7739 -122.0067 265° West 214 246 7,100 -1,180 Descending Seattle Center
Mon 09:23:23 PM 47.7733 -122.0161 268° West 216 249 7,100 -295 Level Seattle Center
Mon 09:24:10 PM 47.7717 -122.0939 264° West 211 243 6,800 -689 Descending Seattle Center
Mon 09:24:24 PM 47.7703 -122.1125 267° West 213 245 6,400 -787 Descending Seattle Center
Mon 09:25:11 PM 47.7678 -122.1753 270° West 197 227 6,000 -393 Descending Seattle Center
Mon 09:25:25 PM 47.7678 -122.1947 268° West 200 230 6,000 -720 Level Seattle Center
Mon 09:26:26 PM 47.7664 -122.2692 207° Southwest 182 209 5,100 -934 Descending Seattle Center
Mon 09:27:27 PM 47.7217 -122.3028 192° South 177 204 4,100 -617 Descending Seattle Center
Mon 09:28:13 PM 47.6831 -122.3147 184° South 175 201 4,000 -98 Descending Seattle Center
Mon 09:28:28 PM 47.6708 -122.3158 184° South 175 201 4,000 -109 Level Seattle Center
Mon 09:29:08 PM 47.6397 -122.3189 177° South 175 201 3,900 -393 Descending Seattle Center
Mon 09:29:29 PM 47.6217 -122.3175 179° South 178 205 3,600 -896 Descending Seattle Center
Mon 09:30:15 PM 47.5836 -122.3169 182° South 177 204 2,900 -885 Descending Seattle Center
Mon 09:30:30 PM 47.5731 -122.3175 181° South 176 203 2,700 -873 Descending Seattle Center
Mon 09:31:10 PM 47.5461 -122.3181 180° South 153 176 2,100 -787 Descending Seattle Center
Mon 09:31:31 PM 47.5322 -122.3181 180° South 149 171 1,900 -689 Descending Seattle Center
Mon 09:32:11 PM 47.5106 -122.3181 180° South 111 128 1,400 -590 Descending Seattle Center
Mon 09:32:32 PM 47.5017 -122.3181 183° South 105 121 1,300 -492 Descending Seattle Center
Mon 09:33:12 PM 47.4842 -122.3194 175° South 98 113 900 -590 Descending Seattle Center
Mon 09:33:33 PM 47.4750 -122.3183 180° South 97 112 700 -293 Descending Seattle Center
Mon 09:34:34 PM 47.4447 -122.3181 180° South 99 114 500 -197 Descending Seattle Center

Login

Don't have an account? Register now (free) for customized features, flight alerts, and more!